To NAV CANADA Home Page Login to a new session Search on AWWS site Feedback and Comments Disclaimer Vers la page française équivalente Tips FAQ What's new on the site To the Forecasts and Observations / NOTAM section To "File a Flight Plan" website Publications and other links Update of the User's profile FIC Telephone Numbers My Weather Data Folder Route Weather Data Regional Weather Data Local Weather Data To the Forecasts and Observations / NOTAM section
Request Generated 07/27/2016 at 17:17:07 UTC . Weather information available at that time is displayed.

METAR/TAF

TORONTO/BUTTONVILLE MUNICIPAL/ON    

METAR CYKZ 271700Z 28007G21KT 250V320 15SM FEW060 FEW250 31/15 A2992
RMK CU1CI1 CI TR TCU DVLPG S SLP131 DENSITY ALT 2600FT=
METAR CYKZ 271600Z 27008G23KT 240V330 15SM FEW055 FEW085 FEW240 31/17
A2993 RMK CU1AC1CI1 AC TR CI TR SLP133 DENSITY ALT 2600FT=
METAR CYKZ 271500Z 25004KT 180V330 15SM FEW045 FEW075 FEW230 29/18
A2995 RMK CU1AC1CI1 CU TR AC TR CI TR SLP139 DENSITY ALT 2300FT=

TAF CYKZ 271138Z 2712/2724 VRB03KT P6SM FEW060
BECMG 2712/2714 24010KT
FM271600 28010KT P6SM SCT060 TEMPO 2718/2724 P6SM -SHRA BKN060
PROB30 2718/2724 2SM +TSRA BR BKN020 BKN060CB
RMK NXT FCST BY 271800Z=
Your time UTC time
Weather data provided by Environment Canada and NAV CANADA